Flight Track Log - Related Links

Times and Time Zones

All times are in EDT time to prevent confusion due to time zone crossing. See the AAY655 flight status page for this flight to view local times or setup timezone preferences in your user account.

Time Position Orientation Groundspeed Altitude Reporting Facility
EDT Latitude Longitude Course Direction KTS MPH feet Rate Location/Type
Mon 07:30:00 PM 43.1167 -78.9667 206° Southwest 149 171 1,200  Level Buffalo TRACON
Mon 07:30:54 PM 43.0667 -79.0000 206° Southwest 213 245 2,900 2,418 Climbing Buffalo TRACON
Mon 07:32:14 PM 42.9933 -79.0886 221° Southwest 264 304 6,600 2,766 Climbing Cleveland Center
Mon 07:33:15 PM 42.9250 -79.1303 204° Southwest 292 336 9,400 2,244 Climbing Cleveland Center
Mon 07:34:17 PM 42.8319 -79.1269 178° South 310 357 11,200 1,500 Climbing Cleveland Center
Mon 07:35:19 PM 42.7258 -79.1264 180° South 380 437 12,500 1,839 Climbing Cleveland Center
Mon 07:36:21 PM 42.6094 -79.1258 180° South 416 479 15,000 2,195 Climbing Cleveland Center
Mon 07:37:22 PM 42.4889 -79.1228 179° South 433 498 17,000 2,146 Climbing Cleveland Center
Mon 07:38:24 PM 42.3561 -79.1222 180° South 443 510 19,400 1,839 Climbing Cleveland Center
Mon 07:39:26 PM 42.2303 -79.1219 180° South 455 524 20,800 1,452 Climbing Cleveland Center
Mon 07:40:28 PM 42.1036 -79.1508 190° South 465 535 22,400 1,415 Climbing Cleveland Center
Mon 07:41:29 PM 41.9719 -79.1814 190° South 481 554 23,700 1,415 Climbing Cleveland Center
Mon 07:42:31 PM 41.8206 -79.2169 190° South 488 562 25,300 1,548 Climbing Cleveland Center
Mon 07:43:33 PM 41.6847 -79.2489 190° South 496 571 26,900 1,548 Climbing Cleveland Center
Mon 07:44:35 PM 41.5444 -79.2831 190° South 489 563 28,500 1,463 Climbing Cleveland Center
Mon 07:45:36 PM 41.4128 -79.3139 190° South 489 563 29,900 732 Climbing Cleveland Center
Mon 07:46:38 PM 41.2772 -79.3456 190° South 481 554 30,000 48 Climbing Cleveland Center
Mon 07:47:40 PM 41.1458 -79.3753 190° South 480 552 30,000  Level Cleveland Center
Mon 07:48:42 PM 41.0144 -79.4056 190° South 480 552 30,000  Level Cleveland Center
Mon 07:49:43 PM 40.8825 -79.4347 189° South 479 551 30,000  Level Cleveland Center
Mon 07:50:45 PM 40.7503 -79.4564 187° South 480 552 30,000  Level Cleveland Center
Mon 07:51:47 PM 40.5867 -79.4511 179° South 485 558 30,000  Level Cleveland Center
Mon 07:52:49 PM 40.4514 -79.4483 179° South 485 558 30,000  Level Cleveland Center
Mon 07:53:50 PM 40.3144 -79.4456 179° South 485 558 30,000  Level Cleveland Center
Mon 07:54:52 PM 40.1781 -79.4444 180° South 486 559 30,000  Level Cleveland Center
Mon 07:55:54 PM 40.0422 -79.4550 183° South 487 560 30,000  Level Cleveland Center
Mon 07:56:56 PM 39.9075 -79.4797 188° South 488 562 30,000  Level Cleveland Center
Mon 07:57:58 PM 39.7733 -79.5047 188° South 487 560 30,000  Level Cleveland Center
Mon 07:58:59 PM 39.6422 -79.5269 187° South 483 556 30,000  Level Cleveland Center
Mon 08:00:01 PM 39.4839 -79.5525 187° South 480 552 30,000  Level Cleveland Center
Mon 08:01:03 PM 39.3522 -79.5739 187° South 479 551 30,000  Level Cleveland Center
Mon 08:02:05 PM 39.2189 -79.5975 188° South 479 551 30,000  Level Cleveland Center
Mon 08:03:07 PM 39.0867 -79.6228 188° South 479 551 30,000  Level Cleveland Center
Mon 08:04:09 PM 38.9550 -79.6461 188° South 480 552 30,000  Level Cleveland Center
Mon 08:05:11 PM 38.8242 -79.6669 187° South 477 549 30,000  Level Cleveland Center
Mon 08:06:13 PM 38.6672 -79.6942 188° South 475 547 30,000  Level Cleveland Center
Mon 08:07:29 PM 38.5211 -79.7261 190° South 487 560 30,000  Level Washington Center
Mon 08:08:29 PM 38.3892 -79.7481 187° South 487 560 30,000  Level Washington Center
Mon 08:09:27 PM 38.2569 -79.7697 187° South 482 555 30,000  Level Washington Center
Mon 08:10:27 PM 38.1142 -79.7933 187° South 482 555 30,000  Level Washington Center
Mon 08:11:27 PM 37.9842 -79.8203 189° South 482 555 30,000  Level Washington Center
Mon 08:12:27 PM 37.8539 -79.8472 189° South 482 555 30,000  Level Washington Center
Mon 08:13:27 PM 37.7342 -79.8694 188° South 488 562 30,000  Level Washington Center
Mon 08:14:28 PM 37.6036 -79.8986 190° South 488 562 30,000  Level Washington Center
Mon 08:15:29 PM 37.4714 -79.9253 189° South 488 562 30,000  Level Washington Center
Mon 08:16:27 PM 37.3264 -79.9511 188° South 488 562 30,000  Level Washington Center
Mon 08:17:28 PM 37.1942 -79.9747 188° South 488 562 30,000  Level Washington Center
Mon 08:18:28 PM 37.0639 -80.0011 189° South 488 562 30,000  Level Washington Center
Mon 08:20:13 PM 36.8461 -80.0389 188° South 479 551 30,000  Level Atlanta Center
Mon 08:21:13 PM 36.7156 -80.0636 189° South 479 551 30,000  Level Atlanta Center
Mon 08:22:13 PM 36.5869 -80.0856 188° South 479 551 30,000  Level Atlanta Center
Mon 08:23:13 PM 36.4544 -80.1128 189° South 479 551 30,000  Level Atlanta Center
Mon 08:24:13 PM 36.3133 -80.1378 188° South 479 551 30,000  Level Atlanta Center
Mon 08:25:13 PM 36.1828 -80.1647 189° South 479 551 30,000  Level Atlanta Center
Mon 08:26:13 PM 36.0522 -80.1889 189° South 479 551 30,000  Level Atlanta Center
Mon 08:27:13 PM 35.9339 -80.2072 187° South 479 551 30,000  Level Atlanta Center
Mon 08:28:13 PM 35.8094 -80.2361 191° South 479 551 30,000  Level Atlanta Center
Mon 08:29:13 PM 35.6642 -80.2608 188° South 479 551 30,000  Level Atlanta Center
Mon 08:30:13 PM 35.5336 -80.2872 189° South 479 551 30,000  Level Atlanta Center
Mon 08:31:13 PM 35.4050 -80.3111 189° South 479 551 30,000  Level Atlanta Center
Mon 08:32:13 PM 35.2764 -80.3347 189° South 484 557 30,000  Level Atlanta Center
Mon 08:33:13 PM 35.1478 -80.3581 188° South 479 551 30,000  Level Atlanta Center
Mon 08:36:23 PM 34.7386 -80.4344 189° South 474 545 30,000  Level Jacksonville Center
Mon 08:37:23 PM 34.6100 -80.4583 189° South 468 539 30,000  Level Jacksonville Center
Mon 08:38:23 PM 34.4811 -80.4819 189° South 468 539 30,000  Level Jacksonville Center
Mon 08:39:23 PM 34.3522 -80.5108 190° South 468 539 30,000 -50 Level Jacksonville Center
Mon 08:40:23 PM 34.2253 -80.5319 188° South 468 539 29,900  Descending Jacksonville Center
Mon 08:41:23 PM 34.0944 -80.5556 188° South 468 539 30,000 -350 Climbing Jacksonville Center
Mon 08:42:23 PM 33.9675 -80.5789 189° South 468 539 29,200 -1,000 Descending Jacksonville Center
Mon 08:43:23 PM 33.8344 -80.6022 188° South 468 539 28,000 -650 Descending Jacksonville Center
Mon 08:44:23 PM 33.7139 -80.6231 188° South 484 557 27,900 -50 Descending Jacksonville Center
Mon 08:45:23 PM 33.5847 -80.6461 188° South 484 557 27,900 50 Level Jacksonville Center
Mon 08:46:23 PM 33.4536 -80.6694 188° South 484 557 28,000 50 Climbing Jacksonville Center
Mon 08:47:23 PM 33.3228 -80.6925 188° South 484 557 28,000  Level Jacksonville Center
Mon 08:48:23 PM 33.1914 -80.7133 188° South 484 557 28,000  Level Jacksonville Center
Mon 08:49:23 PM 33.0603 -80.7361 188° South 484 557 28,000  Level Jacksonville Center
Mon 08:50:23 PM 32.9314 -80.7617 189° South 484 557 28,000  Level Jacksonville Center
Mon 08:51:23 PM 32.7983 -80.7844 188° South 484 557 28,000  Level Jacksonville Center
Mon 08:52:23 PM 32.6692 -80.8072 188° South 484 557 28,000  Level Jacksonville Center
Mon 08:53:23 PM 32.5381 -80.8300 188° South 484 557 28,000  Level Jacksonville Center
Mon 08:54:23 PM 32.3986 -80.8553 189° South 479 551 28,000  Level Jacksonville Center
Mon 08:55:23 PM 32.2800 -80.8753 188° South 479 551 28,000  Level Jacksonville Center
Mon 08:56:23 PM 32.1361 -80.8981 188° South 479 551 28,000  Level Jacksonville Center
Mon 08:57:23 PM 32.0175 -80.9203 189° South 484 557 28,000  Level Jacksonville Center
Mon 08:58:23 PM 31.8739 -80.9453 188° South 479 551 28,000  Level Jacksonville Center
Mon 08:59:23 PM 31.7469 -80.9675 188° South 479 551 28,000  Level Jacksonville Center
Mon 09:00:23 PM 31.6281 -80.9869 188° South 479 551 28,000  Level Jacksonville Center
Mon 09:01:23 PM 31.4886 -81.0117 189° South 477 549 28,000  Level Jacksonville Center
Mon 09:02:23 PM 31.3553 -81.0314 187° South 477 549 28,000  Level Jacksonville Center
Mon 09:03:23 PM 31.2219 -81.0561 189° South 480 552 28,000  Level Jacksonville Center
Mon 09:04:22 PM 31.0931 -81.0778 188° South 479 551 28,000  Level Jacksonville Center
Mon 09:05:23 PM 30.9617 -81.1022 189° South 484 557 28,000  Level Jacksonville Center
Mon 09:06:23 PM 30.8325 -81.1192 186° South 479 551 28,000  Level Jacksonville Center
Mon 09:07:23 PM 30.7033 -81.1433 189° South 479 551 28,000  Level Jacksonville Center
Mon 09:08:23 PM 30.5700 -81.1556 185° South 485 558 28,000 -350 Level Jacksonville Center
Mon 09:09:23 PM 30.4383 -81.1483 177° South 480 552 27,300 -1,000 Descending Jacksonville Center
Mon 09:10:23 PM 30.3025 -81.1458 179° South 475 547 26,000 -1,200 Descending Jacksonville Center
Mon 09:11:23 PM 30.1711 -81.1433 179° South 475 547 24,900 -1,200 Descending Jacksonville Center
Mon 09:12:23 PM 30.0583 -81.1406 179° South 469 540 23,600 -1,714 Descending Jacksonville Center
Mon 09:13:22 PM 29.9433 -81.1356 178° South 445 512 21,500 -2,366 Descending Jacksonville Center
Mon 09:13:34 PM 29.9161 -81.1361 181° South 386 444 20,800 -2,557 Descending Jacksonville Center
Mon 09:14:23 PM 29.8328 -81.1328 178° South 419 482 18,900 -2,836 Descending Jacksonville Center
Mon 09:14:29 PM 29.8139 -81.1331 181° South 386 444 18,200 -2,644 Descending Jacksonville Center
Mon 09:15:22 PM 29.7219 -81.1325 180° South 400 460 16,300 -2,557 Descending Jacksonville Center
Mon 09:15:30 PM 29.7053 -81.1281 167° South 393 452 15,600 -2,800 Descending Jacksonville Center
Mon 09:16:22 PM 29.6175 -81.1272 180° South 400 460 13,500 -2,951 Descending Jacksonville Center
Mon 09:16:31 PM 29.5883 -81.1278 181° South 391 450 12,600 -2,066 Descending Jacksonville Center
Mon 09:17:23 PM 29.5111 -81.1242 178° South 394 453 11,400 -1,475 Descending Jacksonville Center
Mon 09:17:32 PM 29.4861 -81.1247 181° South 369 425 11,100 -1,100 Descending Jacksonville Center
Mon 09:18:23 PM 29.4150 -81.1211 177° South 371 427 10,300 -1,000 Descending Jacksonville Center
Mon 09:18:32 PM 29.3942 -81.1192 175° South 315 362 10,100 -1,200 Descending Jacksonville Center
Mon 09:19:23 PM 29.3294 -81.1156 177° South 336 387 9,100 -1,279 Descending Jacksonville Center
Mon 09:19:33 PM 29.3106 -81.1161 181° South 288 331 8,800 -1,200 Descending Jacksonville Center
Mon 09:20:23 PM 29.2522 -81.1267 189° South 303 349 7,900 -1,255 Descending Jacksonville Center
Mon 09:21:23 PM 29.1731 -81.1422 190° South 292 336 6,500 -1,350 Descending Jacksonville Center
Mon 09:22:23 PM 29.1003 -81.1600 192° South 286 329 5,200 -750 Descending Jacksonville Center
Mon 09:23:23 PM 29.0256 -81.1781 192° South 280 322 5,000 -277 Descending Jacksonville Center
Mon 09:25:16 PM 28.8833 -81.2167 193° South 274 315 4,400 -704 Descending Orlando TRACON
Mon 09:26:22 PM 28.8667 -81.3167 259° West 243 280 2,900 -1,048 Descending Orlando TRACON
Mon 09:27:22 PM 28.8500 -81.3667 249° West 179 206 2,200 -650 Descending Orlando TRACON
Mon 09:28:22 PM 28.8000 -81.3500 164° South 180 207 1,600 -545 Descending Orlando TRACON
Mon 09:29:23 PM 28.7833 -81.3167 120° Southeast 166 191 1,100 -492 Descending Orlando TRACON
Mon 09:31:00 PM 28.7667 -81.2333 199° South  Level FlightAware
Mon 09:38:00 PM 28.7770 -81.2349 199° South  Level Estimated
Mon 09:39:00 PM 28.7770 -81.2349 199° South  Level Estimated
Mon 09:40:00 PM 28.7770 -81.2349 199° South  Level Estimated
Mon 09:41:00 PM 28.7770 -81.2349 199° South  Level Estimated

Login

Don't have an account? Register now (free) for customized features, flight alerts, and more!